Time;durP1;ratioP1;P1;durP2;ratioP2;P2;SDS_P1;SDS_P2;PMS_P1;PMS_P2;Temp;Humidity;BMP_temperature;BMP_pressure;BME280_temperature;BME280_humidity;BME280_pressure;Samples;Min_cycle;Max_cycle;Signal;HPM_P1;HPM_P2
2023/08/31 00:00:41;;;;;;;0.10;0.10;;;;;;;13.64;100.00;98495.25;5072015;28;20302;-56
2023/08/31 00:03:28;;;;;;;0.10;0.10;;;;;;;13.42;100.00;98505.09;5075492;28;20273;-57
2023/08/31 00:06:16;;;;;;;0.10;0.10;;;;;;;13.48;100.00;98517.00;5075897;28;20266;-56
2023/08/31 00:09:05;;;;;;;0.10;0.10;;;;;;;13.37;100.00;98507.28;5075748;28;20267;-57
2023/08/31 00:11:53;;;;;;;0.10;0.10;;;;;;;13.35;100.00;98513.72;5074435;28;20191;-56
2023/08/31 00:14:40;;;;;;;0.00;0.00;;;;;;;13.30;100.00;98510.59;5075704;28;20318;-57
2023/08/31 00:17:27;;;;;;;0.00;0.00;;;;;;;13.37;100.00;98509.94;5075613;28;20196;-56
2023/08/31 00:20:14;;;;;;;0.10;0.10;;;;;;;13.45;100.00;98504.81;5075392;28;20250;-57
2023/08/31 00:23:01;;;;;;;0.10;0.10;;;;;;;13.51;100.00;98508.78;5075425;28;20195;-56
2023/08/31 00:25:48;;;;;;;0.10;0.10;;;;;;;13.58;100.00;98509.06;5075426;28;20275;-57
2023/08/31 00:28:37;;;;;;;0.10;0.10;;;;;;;13.55;100.00;98512.84;5075394;28;20199;-56
2023/08/31 00:31:24;;;;;;;0.10;0.10;;;;;;;13.43;100.00;98509.44;5074058;28;20259;-56
2023/08/31 00:34:17;;;;;;;0.10;0.10;;;;;;;13.45;100.00;98518.13;5074177;28;20195;-56
2023/08/31 00:37:04;;;;;;;0.10;0.10;;;;;;;13.36;100.00;98515.41;5074098;28;20192;-56
2023/08/31 00:39:52;;;;;;;0.00;0.00;;;;;;;13.30;100.00;98518.56;5075208;28;20196;-56
2023/08/31 00:42:39;;;;;;;0.10;0.10;;;;;;;13.21;100.00;98512.22;5072892;28;20195;-56
2023/08/31 00:45:28;;;;;;;0.10;0.10;;;;;;;13.07;100.00;98524.00;5073719;28;20208;-56
2023/08/31 00:48:17;;;;;;;0.10;0.10;;;;;;;13.30;100.00;98514.09;5073966;28;20275;-56
2023/08/31 00:51:06;;;;;;;0.10;0.10;;;;;;;13.21;100.00;98525.50;5074936;28;20259;-57
2023/08/31 00:53:54;;;;;;;0.10;0.10;;;;;;;13.18;100.00;98523.94;5073810;28;20430;-56
2023/08/31 00:56:41;;;;;;;0.10;0.10;;;;;;;13.17;100.00;98535.56;5073606;28;20349;-56
2023/08/31 00:59:29;;;;;;;0.10;0.10;;;;;;;13.12;100.00;98534.25;5074668;28;20211;-56
2023/08/31 01:02:22;;;;;;;0.10;0.10;;;;;;;13.13;100.00;98543.94;5074355;28;20226;-56
2023/08/31 01:05:19;;;;;;;0.10;0.10;;;;;;;13.17;100.00;98543.53;5074579;28;20230;-56
2023/08/31 01:08:19;;;;;;;0.10;0.10;;;;;;;13.09;100.00;98534.50;5073453;28;20234;-56
2023/08/31 01:11:16;;;;;;;0.10;0.10;;;;;;;13.08;100.00;98538.97;5073465;28;20183;-56
2023/08/31 01:14:11;;;;;;;0.10;0.10;;;;;;;13.03;100.00;98533.22;5074456;28;20210;-57
2023/08/31 01:17:02;;;;;;;0.10;0.10;;;;;;;12.83;100.00;98531.38;5073254;28;20223;-57
2023/08/31 01:19:52;;;;;;;0.10;0.10;;;;;;;12.86;100.00;98531.97;5074405;28;20192;-57
2023/08/31 01:22:44;;;;;;;0.10;0.10;;;;;;;12.72;100.00;98529.59;5074191;28;20216;-57
2023/08/31 01:25:34;;;;;;;0.10;0.10;;;;;;;12.75;100.00;98545.31;5074237;28;20196;-57
2023/08/31 01:28:21;;;;;;;0.10;0.10;;;;;;;12.78;100.00;98537.06;5073036;28;20306;-56
2023/08/31 01:31:09;;;;;;;0.10;0.10;;;;;;;12.89;100.00;98546.81;5074287;28;20196;-57
2023/08/31 01:33:56;;;;;;;0.10;0.10;;;;;;;12.86;100.00;98539.09;5073040;28;20279;-56
2023/08/31 01:36:47;;;;;;;0.10;0.10;;;;;;;12.94;100.00;98541.97;5072837;28;20281;-56
2023/08/31 01:39:41;;;;;;;0.00;0.00;;;;;;;12.95;100.00;98546.31;5074033;28;20290;-56
2023/08/31 01:42:30;;;;;;;0.10;0.10;;;;;;;12.99;100.00;98545.06;5072360;28;20215;-56
2023/08/31 01:45:21;;;;;;;0.10;0.10;;;;;;;12.86;100.00;98550.56;5073883;28;20195;-56
2023/08/31 01:48:08;;;;;;;0.00;0.00;;;;;;;12.93;100.00;98558.88;5073717;28;20227;-56
2023/08/31 01:50:56;;;;;;;0.10;0.10;;;;;;;12.86;100.00;98560.38;5073842;28;20196;-56
2023/08/31 01:53:44;;;;;;;0.10;0.10;;;;;;;12.62;100.00;98547.28;5073764;28;20214;-56
2023/08/31 01:56:31;;;;;;;0.10;0.10;;;;;;;12.70;100.00;98557.28;5071135;28;20698;-57
2023/08/31 01:59:20;;;;;;;0.10;0.10;;;;;;;12.70;100.00;98551.97;5072471;28;20271;-56
2023/08/31 02:02:06;;;;;;;0.10;0.10;;;;;;;12.70;100.00;98550.16;5072339;28;20219;-56
2023/08/31 02:04:53;;;;;;;0.10;0.10;;;;;;;12.60;100.00;98557.19;5072286;28;20214;-56
2023/08/31 02:07:40;;;;;;;0.10;0.10;;;;;;;12.96;100.00;98558.63;5072324;28;20188;-57
2023/08/31 02:10:29;;;;;;;0.10;0.10;;;;;;;12.73;100.00;98557.03;5073343;28;20307;-56
2023/08/31 02:13:16;;;;;;;0.10;0.10;;;;;;;12.52;100.00;98559.63;5071858;28;20238;-57
2023/08/31 02:16:05;;;;;;;0.10;0.10;;;;;;;12.43;100.00;98557.72;5072374;28;20221;-56
2023/08/31 02:18:52;;;;;;;0.10;0.10;;;;;;;12.51;100.00;98548.16;5073180;28;20254;-56
2023/08/31 02:21:38;;;;;;;0.10;0.10;;;;;;;12.49;100.00;98562.53;5072786;28;20292;-56
2023/08/31 02:24:26;;;;;;;0.10;0.10;;;;;;;12.42;100.00;98559.53;5072690;28;20203;-57
2023/08/31 02:27:12;;;;;;;0.10;0.10;;;;;;;12.32;100.00;98561.25;5072066;28;20204;-57
2023/08/31 02:30:00;;;;;;;0.10;0.10;;;;;;;12.31;100.00;98565.72;5072993;28;20187;-56
2023/08/31 02:32:48;;;;;;;0.10;0.10;;;;;;;12.32;100.00;98567.41;5071864;28;20187;-57
2023/08/31 02:35:35;;;;;;;0.10;0.10;;;;;;;12.41;100.00;98580.91;5073001;28;20195;-57
2023/08/31 02:38:24;;;;;;;0.10;0.10;;;;;;;12.36;100.00;98580.44;5072514;28;20227;-57
2023/08/31 02:41:10;;;;;;;0.10;0.10;;;;;;;12.38;100.00;98575.84;5070605;28;20227;-57
2023/08/31 02:43:57;;;;;;;0.00;0.00;;;;;;;12.45;100.00;98577.91;5072924;28;20190;-57
2023/08/31 02:46:44;;;;;;;0.10;0.10;;;;;;;12.48;100.00;98571.47;5072614;28;20691;-56
2023/08/31 02:49:33;;;;;;;0.03;0.03;;;;;;;12.57;100.00;98574.22;5072957;28;20279;-57
2023/08/31 02:52:20;;;;;;;0.10;0.10;;;;;;;12.42;100.00;98574.63;5072735;28;20671;-56
2023/08/31 02:55:08;;;;;;;0.10;0.10;;;;;;;12.45;100.00;98571.72;5071493;28;20656;-57
2023/08/31 02:57:55;;;;;;;0.10;0.10;;;;;;;12.59;100.00;98572.28;5071357;28;20718;-56
2023/08/31 03:00:42;;;;;;;0.07;0.07;;;;;;;12.92;100.00;98570.47;5072690;28;20258;-56
2023/08/31 03:03:29;;;;;;;0.10;0.10;;;;;;;12.67;100.00;98563.69;5071235;28;20219;-56
2023/08/31 03:06:18;;;;;;;0.10;0.10;;;;;;;12.60;100.00;98555.38;5071435;28;20262;-56
2023/08/31 03:09:05;;;;;;;0.10;0.10;;;;;;;12.63;100.00;98554.28;5072512;28;20203;-56
2023/08/31 03:11:51;;;;;;;0.10;0.10;;;;;;;12.74;100.00;98550.72;5071126;28;20195;-57
2023/08/31 03:14:40;;;;;;;0.10;0.10;;;;;;;12.82;100.00;98553.59;5071458;28;20199;-57
2023/08/31 03:17:26;;;;;;;0.10;0.10;;;;;;;12.80;100.00;98556.38;5072421;28;20330;-57
2023/08/31 03:20:13;;;;;;;0.10;0.10;;;;;;;12.77;100.00;98561.97;5071358;28;20699;-57
2023/08/31 03:23:02;;;;;;;0.10;0.10;;;;;;;12.72;100.00;98569.47;5072138;28;20211;-57
2023/08/31 03:25:49;;;;;;;0.10;0.10;;;;;;;12.76;100.00;98562.94;5072319;28;20302;-57
2023/08/31 03:28:38;;;;;;;0.10;0.10;;;;;;;12.90;100.00;98570.59;5072304;28;20203;-57
2023/08/31 03:31:27;;;;;;;0.10;0.10;;;;;;;13.17;100.00;98566.63;5072377;28;20204;-57
2023/08/31 03:34:13;;;;;;;0.10;0.10;;;;;;;13.30;100.00;98561.13;5072359;28;20318;-56
2023/08/31 03:37:00;;;;;;;0.00;0.00;;;;;;;13.14;100.00;98558.91;5072056;28;20326;-57
2023/08/31 03:39:49;;;;;;;0.10;0.10;;;;;;;13.09;100.00;98564.59;5075011;28;20442;-57
2023/08/31 03:42:36;;;;;;;0.10;0.10;;;;;;;13.09;100.00;98558.44;5074631;28;20227;-56
2023/08/31 03:45:25;;;;;;;0.10;0.10;;;;;;;13.30;100.00;98561.13;5076228;28;20241;-56
2023/08/31 03:48:12;;;;;;;0.10;0.10;;;;;;;13.23;100.00;98566.16;5076253;28;20199;-56
2023/08/31 03:50:59;;;;;;;0.10;0.10;;;;;;;12.96;100.00;98563.09;5075041;28;20216;-56
2023/08/31 03:53:46;;;;;;;0.10;0.10;;;;;;;12.93;100.00;98558.88;5076113;28;20187;-56
2023/08/31 03:56:34;;;;;;;0.10;0.10;;;;;;;12.64;100.00;98563.09;5074846;28;20195;-56
2023/08/31 03:59:21;;;;;;;0.10;0.10;;;;;;;12.51;100.00;98577.38;5075008;28;20203;-56
2023/08/31 04:02:08;;;;;;;0.10;0.10;;;;;;;12.52;100.00;98575.56;5074727;28;20206;-56
2023/08/31 04:04:56;;;;;;;0.10;0.10;;;;;;;12.41;100.00;98576.44;5074822;28;20310;-56
2023/08/31 04:07:43;;;;;;;0.10;0.10;;;;;;;12.46;100.00;98592.88;5074922;28;20237;-56
2023/08/31 04:10:31;;;;;;;0.10;0.10;;;;;;;12.46;100.00;98584.06;5075998;28;20236;-56
2023/08/31 04:13:19;;;;;;;0.10;0.10;;;;;;;12.54;100.00;98593.06;5074812;28;20215;-57
2023/08/31 04:16:06;;;;;;;0.10;0.10;;;;;;;12.56;100.00;98593.81;5075724;28;20203;-56
2023/08/31 04:18:53;;;;;;;0.10;0.10;;;;;;;12.78;100.00;98605.34;5074678;28;20203;-57
2023/08/31 04:21:40;;;;;;;0.10;0.10;;;;;;;12.66;100.00;98609.00;5075531;28;20203;-56
2023/08/31 04:24:28;;;;;;;0.10;0.10;;;;;;;12.56;100.00;98599.13;5075415;28;20194;-56
2023/08/31 04:27:15;;;;;;;0.10;0.10;;;;;;;12.44;100.00;98596.59;5074098;28;20191;-56
2023/08/31 04:30:03;;;;;;;0.10;0.10;;;;;;;12.43;100.00;98600.22;5075303;28;20726;-56
2023/08/31 04:32:50;;;;;;;0.10;0.10;;;;;;;12.37;100.00;98609.53;5075240;28;20188;-56
2023/08/31 04:35:37;;;;;;;0.03;0.03;;;;;;;12.55;100.00;98617.84;5075172;28;20249;-57
2023/08/31 04:38:24;;;;;;;0.10;0.10;;;;;;;12.51;100.00;98621.69;5074980;28;20227;-57
2023/08/31 04:41:11;;;;;;;0.10;0.10;;;;;;;12.46;100.00;98626.56;5073869;28;20497;-57
2023/08/31 04:43:58;;;;;;;0.10;0.10;;;;;;;12.48;100.00;98624.59;5074796;28;20266;-57
2023/08/31 04:46:46;;;;;;;0.10;0.10;;;;;;;12.48;100.00;98622.78;5075068;28;20222;-56
2023/08/31 04:49:33;;;;;;;0.10;0.10;;;;;;;12.48;100.00;98633.41;5074617;28;20191;-56
2023/08/31 04:52:20;;;;;;;0.10;0.10;;;;;;;12.52;100.00;98640.16;5074645;28;20195;-56
2023/08/31 04:55:08;;;;;;;0.10;0.10;;;;;;;12.39;100.00;98636.81;5074840;28;20255;-57
2023/08/31 04:57:56;;;;;;;0.10;0.10;;;;;;;12.32;100.00;98641.75;5073586;28;20188;-57
2023/08/31 05:00:44;;;;;;;0.10;0.10;;;;;;;12.33;100.00;98647.91;5074738;28;20292;-56
2023/08/31 05:03:33;;;;;;;0.10;0.10;;;;;;;12.38;100.00;98645.75;5074294;28;20208;-57
2023/08/31 05:06:23;;;;;;;0.10;0.10;;;;;;;12.33;100.00;98643.44;5074499;28;20200;-56
2023/08/31 05:09:10;;;;;;;0.10;0.10;;;;;;;12.24;100.00;98640.66;5074525;28;20668;-56
2023/08/31 05:11:57;;;;;;;0.10;0.10;;;;;;;12.25;100.00;98645.84;5073318;28;20278;-57
2023/08/31 05:14:44;;;;;;;0.10;0.10;;;;;;;12.20;100.00;98655.16;5074359;28;20319;-56
2023/08/31 05:17:31;;;;;;;0.10;0.10;;;;;;;12.16;100.00;98649.25;5074343;28;20667;-57
2023/08/31 05:20:21;;;;;;;0.10;0.10;;;;;;;12.20;100.00;98657.81;5074407;28;20207;-56
2023/08/31 05:23:08;;;;;;;0.10;0.10;;;;;;;12.35;100.00;98669.88;5073599;28;20215;-56
2023/08/31 05:25:56;;;;;;;0.10;0.10;;;;;;;12.29;100.00;98673.03;5073283;28;20195;-56
2023/08/31 05:28:43;;;;;;;0.10;0.10;;;;;;;12.24;100.00;98669.88;5074256;28;20204;-56
2023/08/31 05:31:30;;;;;;;0.10;0.10;;;;;;;12.25;100.00;98669.75;5074099;28;20189;-56
2023/08/31 05:34:18;;;;;;;0.00;0.00;;;;;;;12.27;100.00;98667.84;5073796;28;20191;-57
2023/08/31 05:37:06;;;;;;;0.10;0.10;;;;;;;12.19;100.00;98672.06;5074025;28;20443;-56
2023/08/31 05:39:53;;;;;;;0.10;0.10;;;;;;;12.33;100.00;98677.97;5073933;28;20211;-57
2023/08/31 05:42:40;;;;;;;0.10;0.10;;;;;;;12.29;100.00;98678.34;5072680;28;20204;-57
2023/08/31 05:45:27;;;;;;;0.10;0.10;;;;;;;12.31;100.00;98679.06;5072949;28;20187;-57
2023/08/31 05:48:14;;;;;;;0.10;0.10;;;;;;;12.38;100.00;98682.94;5073655;28;20656;-56
2023/08/31 05:51:01;;;;;;;0.10;0.10;;;;;;;12.35;100.00;98679.66;5073859;28;20396;-57
2023/08/31 05:53:49;;;;;;;0.10;0.10;;;;;;;12.47;100.00;98682.19;5073732;28;20194;-56
2023/08/31 05:56:36;;;;;;;0.10;0.10;;;;;;;12.56;100.00;98688.59;5072257;28;20196;-56
2023/08/31 05:59:23;;;;;;;0.10;0.10;;;;;;;12.71;100.00;98691.81;5072986;28;20200;-56
2023/08/31 06:02:10;;;;;;;0.10;0.10;;;;;;;12.89;100.00;98690.34;5073585;28;20282;-56
2023/08/31 06:04:57;;;;;;;0.10;0.10;;;;;;;13.09;100.00;98684.25;5072833;28;20341;-56
2023/08/31 06:07:44;;;;;;;0.10;0.10;;;;;;;13.23;100.00;98679.66;5073635;28;20195;-56
2023/08/31 06:10:32;;;;;;;0.10;0.10;;;;;;;13.33;100.00;98678.78;5073302;28;20231;-56
2023/08/31 06:13:19;;;;;;;0.00;0.00;;;;;;;13.51;100.00;98676.41;5073172;28;20258;-57
2023/08/31 06:16:06;;;;;;;0.00;0.00;;;;;;;13.35;100.00;98675.97;5073336;28;20238;-57
2023/08/31 06:18:53;;;;;;;0.10;0.10;;;;;;;13.50;100.00;98680.00;5073349;28;20279;-57
2023/08/31 06:21:40;;;;;;;0.03;0.03;;;;;;;13.66;100.00;98685.72;5073170;28;20199;-56
2023/08/31 06:24:27;;;;;;;0.10;0.10;;;;;;;13.79;100.00;98688.19;5071836;28;20214;-56
2023/08/31 06:27:17;;;;;;;0.03;0.03;;;;;;;13.92;100.00;98686.19;5071775;28;20191;-56
2023/08/31 06:30:07;;;;;;;0.10;0.10;;;;;;;13.67;100.00;98681.25;5072881;28;20203;-56
2023/08/31 06:32:54;;;;;;;0.10;0.10;;;;;;;13.73;100.00;98681.59;5072981;28;20286;-56
2023/08/31 06:35:41;;;;;;;0.10;0.10;;;;;;;13.73;100.00;98684.25;5072854;28;20195;-56
2023/08/31 06:38:28;;;;;;;0.10;0.10;;;;;;;13.75;100.00;98684.97;5072552;28;20323;-56
2023/08/31 06:41:15;;;;;;;0.10;0.10;;;;;;;13.95;100.00;98680.59;5071552;28;20679;-56
2023/08/31 06:44:05;;;;;;;0.10;0.10;;;;;;;14.26;100.00;98673.47;5071662;28;20211;-56
2023/08/31 06:46:52;;;;;;;0.03;0.03;;;;;;;14.29;100.00;98672.38;5072776;28;20676;-56
2023/08/31 06:49:39;;;;;;;0.10;0.10;;;;;;;14.50;100.00;98670.53;5072860;28;20196;-56
2023/08/31 06:52:26;;;;;;;0.10;0.10;;;;;;;14.52;100.00;98665.91;5072723;28;20241;-56
2023/08/31 06:55:17;;;;;;;0.10;0.10;;;;;;;14.39;100.00;98659.94;5072657;28;20241;-56
2023/08/31 06:58:05;;;;;;;0.10;0.10;;;;;;;14.35;100.00;98665.66;5071517;28;20278;-56
2023/08/31 07:00:53;;;;;;;0.10;0.10;;;;;;;14.23;100.00;98664.91;5072597;28;20199;-56
2023/08/31 07:03:40;;;;;;;0.10;0.10;;;;;;;14.22;100.00;98666.72;5072385;28;20232;-56
2023/08/31 07:06:27;;;;;;;0.10;0.10;;;;;;;14.06;100.00;98671.69;5072744;28;20242;-57
2023/08/31 07:09:14;;;;;;;0.03;0.03;;;;;;;13.91;100.00;98679.19;5072568;28;20692;-56
2023/08/31 07:12:01;;;;;;;0.00;0.00;;;;;;;14.05;100.00;98683.31;5071156;28;20246;-57
2023/08/31 07:14:48;;;;;;;0.10;0.10;;;;;;;14.13;100.00;98686.16;5072532;28;20257;-56
2023/08/31 07:17:36;;;;;;;0.00;0.00;;;;;;;14.40;100.00;98687.41;5072441;28;20195;-56
2023/08/31 07:20:23;;;;;;;0.10;0.10;;;;;;;14.52;100.00;98689.88;5072361;28;20211;-56
2023/08/31 07:23:10;;;;;;;0.10;0.10;;;;;;;14.82;100.00;98688.16;5072497;28;20234;-56
2023/08/31 07:25:59;;;;;;;0.10;0.10;;;;;;;15.24;100.00;98674.59;5070939;28;20710;-55
2023/08/31 07:28:46;;;;;;;0.10;0.10;;;;;;;15.29;100.00;98677.69;5072340;28;20203;-56
2023/08/31 07:31:33;;;;;;;0.10;0.10;;;;;;;15.38;100.00;98674.19;5072322;28;20675;-55
2023/08/31 07:34:22;;;;;;;0.10;0.10;;;;;;;15.15;100.00;98660.25;5072312;28;20187;-55
2023/08/31 07:37:08;;;;;;;0.10;0.10;;;;;;;15.12;100.00;98666.72;5072163;28;20207;-55
2023/08/31 07:39:55;;;;;;;0.10;0.10;;;;;;;15.25;100.00;98663.81;5072284;28;20771;-55
2023/08/31 07:42:42;;;;;;;0.10;0.10;;;;;;;14.83;100.00;98655.16;5070839;28;20195;-55
2023/08/31 07:45:29;;;;;;;0.10;0.10;;;;;;;14.88;100.00;98667.13;5072040;28;20211;-55
2023/08/31 07:48:16;;;;;;;0.10;0.10;;;;;;;15.06;100.00;98671.78;5072169;28;20223;-55
2023/08/31 07:51:04;;;;;;;0.10;0.10;;;;;;;15.34;100.00;98676.28;5072045;28;20199;-55
2023/08/31 07:53:51;;;;;;;0.10;0.10;;;;;;;15.38;100.00;98679.53;5072090;28;20277;-55
2023/08/31 07:56:40;;;;;;;0.10;0.10;;;;;;;15.54;100.00;98677.16;5070763;28;20199;-55
2023/08/31 07:59:27;;;;;;;0.00;0.00;;;;;;;16.01;100.00;98688.75;5071895;28;20195;-55
2023/08/31 08:02:16;;;;;;;0.00;0.00;;;;;;;15.68;100.00;98681.22;5072082;28;20200;-55
2023/08/31 08:05:03;;;;;;;0.10;0.10;;;;;;;15.41;100.00;98673.91;5071535;28;20623;-55
2023/08/31 08:07:51;;;;;;;0.10;0.10;;;;;;;15.69;100.00;98675.75;5071680;28;20231;-55
2023/08/31 08:10:38;;;;;;;0.10;0.10;;;;;;;15.61;100.00;98683.63;5071857;28;20191;-55
2023/08/31 08:13:25;;;;;;;0.10;0.10;;;;;;;15.63;100.00;98686.13;5072002;28;20203;-55
2023/08/31 08:16:12;;;;;;;0.10;0.10;;;;;;;15.50;100.00;98680.22;5071719;28;20207;-55
2023/08/31 08:18:59;;;;;;;0.10;0.10;;;;;;;15.36;100.00;98682.34;5071990;28;20234;-55
2023/08/31 08:21:46;;;;;;;0.10;0.10;;;;;;;15.65;100.00;98687.69;5071910;28;20195;-55
2023/08/31 08:24:35;;;;;;;0.10;0.10;;;;;;;15.76;100.00;98697.38;5074563;28;20282;-55
2023/08/31 08:27:21;;;;;;;0.10;0.10;;;;;;;16.12;100.00;98695.78;5074274;28;20200;-55
2023/08/31 08:30:09;;;;;;;0.10;0.10;;;;;;;16.42;100.00;98692.03;5075302;28;20216;-55
2023/08/31 08:32:57;;;;;;;0.10;0.10;;;;;;;16.67;100.00;98700.34;5075126;28;20203;-55
2023/08/31 08:35:44;;;;;;;0.10;0.10;;;;;;;16.40;100.00;98699.31;5075047;28;20188;-55
2023/08/31 08:38:31;;;;;;;0.00;0.00;;;;;;;16.32;100.00;98693.88;5075097;28;20342;-55
2023/08/31 08:41:24;;;;;;;0.10;0.10;;;;;;;16.54;100.00;98692.69;5073888;28;20218;-55
2023/08/31 08:44:11;;;;;;;0.10;0.10;;;;;;;16.75;100.00;98695.13;5074322;28;20250;-56
2023/08/31 08:47:00;;;;;;;0.07;0.07;;;;;;;16.65;100.00;98696.97;5074975;28;20319;-57
2023/08/31 08:49:48;;;;;;;0.10;0.10;;;;;;;16.79;100.00;98685.81;5074853;28;20194;-55
2023/08/31 08:52:36;;;;;;;0.00;0.00;;;;;;;17.00;100.00;98682.91;5075024;28;20191;-55
2023/08/31 08:55:23;;;;;;;0.10;0.10;;;;;;;17.10;100.00;98689.03;5074850;28;20192;-55
2023/08/31 08:58:11;;;;;;;0.10;0.10;;;;;;;17.37;100.00;98688.97;5073846;28;20199;-54
2023/08/31 09:00:58;;;;;;;0.10;0.10;;;;;;;17.52;100.00;98688.44;5074844;28;20266;-55
2023/08/31 09:03:45;;;;;;;0.00;0.00;;;;;;;17.43;100.00;98690.19;5074829;28;20203;-55
2023/08/31 09:06:32;;;;;;;0.10;0.10;;;;;;;17.02;100.00;98692.44;5074348;28;20223;-55
2023/08/31 09:09:19;;;;;;;0.10;0.10;;;;;;;16.69;100.00;98699.22;5074753;28;20485;-54
2023/08/31 09:12:09;;;;;;;0.10;0.10;;;;;;;16.75;100.00;98697.81;5073107;28;20202;-57
2023/08/31 09:15:04;;;;;;;0.10;0.10;;;;;;;16.74;100.00;98694.28;5074489;28;20203;-57
2023/08/31 09:17:51;;;;;;;0.10;0.10;;;;;;;16.71;100.00;98699.94;5074580;28;20262;-57
2023/08/31 09:20:45;;;;;;;0.00;0.00;;;;;;;16.73;100.00;98697.97;5074480;28;20223;-57
2023/08/31 09:23:33;;;;;;;0.10;0.10;;;;;;;17.09;100.00;98693.53;5074433;28;20199;-57
2023/08/31 09:26:20;;;;;;;0.10;0.10;;;;;;;16.80;100.00;98699.06;5072896;28;20491;-57
2023/08/31 09:29:07;;;;;;;0.10;0.10;;;;;;;16.63;100.00;98704.31;5074140;28;20199;-54
2023/08/31 09:31:58;;;;;;;0.10;0.10;;;;;;;16.43;100.00;98708.91;5074245;28;20196;-55
2023/08/31 09:34:46;;;;;;;0.10;0.10;;;;;;;16.72;100.00;98701.63;5072978;28;20245;-55
2023/08/31 09:37:32;;;;;;;0.10;0.10;;;;;;;16.99;100.00;98697.28;5073982;28;20727;-54
2023/08/31 09:40:19;;;;;;;0.10;0.10;;;;;;;17.30;100.00;98698.59;5074180;28;20302;-55
2023/08/31 09:43:07;;;;;;;0.10;0.10;;;;;;;17.77;100.00;98695.72;5072795;28;20684;-54
2023/08/31 09:45:54;;;;;;;0.10;0.10;;;;;;;17.43;100.00;98695.53;5073588;28;20786;-54
2023/08/31 09:48:44;;;;;;;0.00;0.00;;;;;;;17.70;100.00;98697.31;5073920;28;20191;-54
2023/08/31 09:51:32;;;;;;;0.10;0.10;;;;;;;17.52;100.00;98691.94;5073964;28;20727;-54
2023/08/31 09:54:21;;;;;;;0.10;0.10;;;;;;;18.22;100.00;98698.19;5073716;28;20191;-54
2023/08/31 09:57:09;;;;;;;0.10;0.10;;;;;;;18.15;100.00;98688.28;5072302;28;20191;-55
2023/08/31 09:59:56;;;;;;;0.10;0.10;;;;;;;18.47;100.00;98693.84;5072478;28;20215;-54
2023/08/31 10:02:45;;;;;;;0.10;0.10;;;;;;;19.02;100.00;98692.59;5073502;28;20204;-55
2023/08/31 10:05:33;;;;;;;0.10;0.10;;;;;;;19.39;100.00;98689.47;5073452;28;20711;-55
2023/08/31 10:08:21;;;;;;;0.10;0.10;;;;;;;19.29;100.00;98683.41;5073526;28;20195;-55
2023/08/31 10:11:12;;;;;;;0.10;0.10;;;;;;;19.32;100.00;98681.25;5071917;28;20283;-55
2023/08/31 10:13:59;;;;;;;0.10;0.10;;;;;;;19.38;100.00;98677.03;5073395;28;20227;-55
2023/08/31 10:16:47;;;;;;;0.10;0.10;;;;;;;19.79;100.00;98690.56;5073404;28;20195;-55
2023/08/31 10:19:34;;;;;;;0.00;0.00;;;;;;;20.04;100.00;98684.13;5073430;28;20208;-55
2023/08/31 10:22:22;;;;;;;0.10;0.10;;;;;;;20.77;100.00;98681.28;5073300;28;20187;-55
2023/08/31 10:25:11;;;;;;;0.10;0.10;;;;;;;20.92;99.55;98694.00;5073209;28;20212;-55
2023/08/31 10:27:58;;;;;;;0.10;0.10;;;;;;;20.90;100.00;98694.19;5071727;28;20199;-55
2023/08/31 10:31:01;;;;;;;0.00;0.00;;;;;;;20.95;98.11;98690.97;5073120;28;20199;-55
2023/08/31 10:33:57;;;;;;;0.10;0.10;;;;;;;22.07;90.50;98701.16;5072911;28;20195;-55
2023/08/31 10:36:46;;;;;;;0.10;0.10;;;;;;;23.20;80.34;98690.13;5072948;28;20290;-55
2023/08/31 10:39:40;;;;;;;0.10;0.10;;;;;;;24.83;69.41;98701.72;5071734;28;20286;-55
2023/08/31 10:42:26;;;;;;;0.10;0.10;;;;;;;25.83;61.86;98697.50;5071480;28;20187;-55
2023/08/31 10:45:14;;;;;;;0.10;0.10;;;;;;;26.90;52.88;98687.34;5072720;28;20207;-55
2023/08/31 10:48:02;;;;;;;0.10;0.10;;;;;;;24.77;56.23;98694.41;5072866;28;20230;-55
2023/08/31 10:50:49;;;;;;;0.10;0.10;;;;;;;22.84;71.95;98703.59;5072737;28;20191;-55
2023/08/31 10:53:37;;;;;;;0.05;0.05;;;;;;;24.01;71.57;98687.19;5072732;28;20263;-55
2023/08/31 10:56:31;;;;;;;0.00;0.00;;;;;;;26.76;56.78;98684.69;5071512;28;20199;-55
2023/08/31 10:59:18;;;;;;;0.10;0.10;;;;;;;26.88;54.48;98692.19;5071266;28;20186;-55
2023/08/31 11:02:05;;;;;;;0.00;0.00;;;;;;;27.39;55.02;98684.00;5071101;28;20187;-55
2023/08/31 11:04:56;;;;;;;0.10;0.10;;;;;;;27.00;50.75;98698.59;5072627;28;20293;-56
2023/08/31 11:07:44;;;;;;;0.00;0.00;;;;;;;26.41;50.70;98680.59;5071676;28;20242;-56
2023/08/31 11:10:31;;;;;;;0.10;0.10;;;;;;;27.07;52.24;98694.00;5072420;28;20195;-55
2023/08/31 11:13:20;;;;;;;0.00;0.00;;;;;;;28.31;44.70;98681.72;5072718;28;20281;-55
2023/08/31 11:16:07;;;;;;;0.00;0.00;;;;;;;29.26;43.24;98687.59;5072286;28;20738;-55
2023/08/31 11:18:54;;;;;;;0.00;0.00;;;;;;;29.21;43.67;98692.91;5070915;28;20291;-56
2023/08/31 11:21:41;;;;;;;0.00;0.00;;;;;;;29.35;42.87;98689.78;5072427;28;20274;-55
2023/08/31 11:24:28;;;;;;;0.00;0.00;;;;;;;28.93;41.76;98680.66;5072458;28;20270;-55
2023/08/31 11:27:15;;;;;;;0.10;0.10;;;;;;;29.59;40.27;98674.34;5070658;28;20224;-55
2023/08/31 11:30:04;;;;;;;0.00;0.00;;;;;;;28.53;43.00;98672.06;5071693;28;20191;-56
2023/08/31 11:32:52;;;;;;;0.00;0.00;;;;;;;25.95;47.92;98670.56;5072219;28;20207;-56
2023/08/31 11:35:42;;;;;;;0.05;0.05;;;;;;;26.66;48.42;98672.59;5072007;28;20250;-56
2023/08/31 11:38:30;;;;;;;0.00;0.00;;;;;;;28.41;44.30;98669.25;5072097;28;20307;-56
2023/08/31 11:41:18;;;;;;;0.00;0.00;;;;;;;30.71;37.79;98674.38;5071006;28;20229;-56
2023/08/31 11:44:05;;;;;;;0.00;0.00;;;;;;;30.70;38.27;98666.41;5072383;28;20194;-56
2023/08/31 11:46:54;;;;;;;0.00;0.00;;;;;;;30.01;38.40;98657.06;5071889;28;20242;-56
2023/08/31 11:49:41;;;;;;;0.00;0.00;;;;;;;29.02;39.09;98654.72;5072243;28;20318;-56
2023/08/31 11:52:28;;;;;;;0.00;0.00;;;;;;;28.92;39.29;98668.06;5072255;28;20207;-56
2023/08/31 11:55:17;;;;;;;0.00;0.00;;;;;;;27.15;43.14;98668.47;5070733;28;20196;-55
2023/08/31 11:58:08;;;;;;;0.00;0.00;;;;;;;24.43;51.36;98668.19;5071523;28;20203;-55
2023/08/31 12:00:56;;;;;;;0.00;0.00;;;;;;;24.43;52.97;98657.34;5075904;28;20234;-55
2023/08/31 12:03:45;;;;;;;0.00;0.00;;;;;;;26.00;48.64;98665.34;5075722;28;20774;-56
2023/08/31 12:06:36;;;;;;;0.00;0.00;;;;;;;26.00;47.87;98667.25;5074698;28;20215;-56
2023/08/31 12:09:24;;;;;;;0.00;0.00;;;;;;;24.83;51.57;98660.25;5073965;28;20192;-55
2023/08/31 12:12:11;;;;;;;0.10;0.10;;;;;;;24.18;54.04;98659.63;5072857;28;20202;-55
2023/08/31 12:15:00;;;;;;;0.10;0.10;;;;;;;24.57;56.26;98663.66;5074377;28;20257;-56
2023/08/31 12:17:53;;;;;;;0.00;0.00;;;;;;;27.16;46.31;98662.81;5075643;28;20222;-56
2023/08/31 12:20:46;;;;;;;0.00;0.00;;;;;;;29.35;41.31;98659.75;5075596;28;20192;-56
2023/08/31 12:23:33;;;;;;;0.00;0.00;;;;;;;28.32;40.48;98659.69;5075531;28;20199;-55
2023/08/31 12:26:20;;;;;;;0.00;0.00;;;;;;;30.01;39.39;98654.34;5073995;28;20238;-56
2023/08/31 12:29:07;;;;;;;0.00;0.00;;;;;;;30.19;39.58;98641.44;5075589;28;20269;-56
2023/08/31 12:31:54;;;;;;;0.00;0.00;;;;;;;29.78;38.84;98638.78;5075358;28;20230;-56
2023/08/31 12:34:41;;;;;;;0.00;0.00;;;;;;;31.94;35.69;98641.97;5074356;28;20672;-56
2023/08/31 12:37:29;;;;;;;0.00;0.00;;;;;;;29.19;37.77;98651.38;5075050;28;20735;-56
2023/08/31 12:40:19;;;;;;;0.00;0.00;;;;;;;30.58;37.37;98638.19;5075380;28;20290;-56
2023/08/31 12:43:06;;;;;;;0.00;0.00;;;;;;;31.99;36.26;98631.13;5074651;28;20282;-56
2023/08/31 12:45:52;;;;;;;0.00;0.00;;;;;;;32.16;34.65;98631.94;5075114;28;20684;-56
2023/08/31 12:48:39;;;;;;;0.00;0.00;;;;;;;30.94;34.67;98626.97;5075038;28;20195;-56
2023/08/31 12:51:26;;;;;;;0.00;0.00;;;;;;;30.47;35.66;98639.88;5074997;28;20200;-55
2023/08/31 12:54:15;;;;;;;0.00;0.00;;;;;;;30.27;36.20;98625.75;5074914;28;20190;-56
2023/08/31 12:57:02;;;;;;;0.00;0.00;;;;;;;30.06;35.37;98628.00;5073750;28;20207;-55
2023/08/31 12:59:49;;;;;;;0.00;0.00;;;;;;;28.44;41.15;98622.47;5074721;28;20191;-56
2023/08/31 13:02:36;;;;;;;0.00;0.00;;;;;;;27.89;40.72;98607.91;5074891;28;20203;-55